Mother M — V7YS3 — position and weather

sailwx.info

Track history (hours):
 
Tides and Currents Weather Stations Pressure Air Temp Water Temp Dewpoint Dewpoint Depression Visibility Wind Speed Wind Dir Waves Ship Positions

Mother M

Last reported at 2017-Nov-04 21:02 UTC. Time now 2017-Nov-24 02:09 UTC.
Position N 27°38' W 015°14'.
Warning: this ship's position is 19 days out of date.

Length 180 m; draft 8.2 m.

Type: Cargo ship. MMSI: 538004721.

Date/timePositionNaut miles runAvg speedWind from/ knotsBaromVisibWave heightAir tempDewpointWater temp
2017-Nov-04 21:02N 27°38' W 015°14'013.9
2017-Nov-04 21:00N 27°38' W 015°13'713.9
2017-Nov-04 20:30N 27°44' W 015°10'713.6
2017-Nov-04 20:00N 27°51' W 015°08'713.6
2017-Nov-04 19:30N 27°57' W 015°05'713.7
2017-Nov-04 19:00N 28°03' W 015°02'713.6
2017-Nov-04 18:30N 28°10' W 014°60'713.5
2017-Nov-04 18:00N 28°16' W 014°57'713.5
2017-Nov-04 17:30N 28°22' W 014°54'713.6
2017-Nov-04 17:00N 28°28' W 014°49'  
2017-Oct-31 12:07N 35°59' W 005°20'110.0
2017-Oct-31 11:58N 35°57' W 005°19'3 5.1
2017-Oct-31 11:28N 35°55' W 005°20'0 0.1
2017-Oct-31 10:58N 35°55' W 005°20'0 0.0
2017-Oct-31 10:28N 35°55' W 005°20'0 0.1
2017-Oct-31 09:55N 35°55' W 005°20'0 0.1
2017-Oct-31 09:22N 35°55' W 005°20'0 0.0
2017-Oct-31 08:58N 35°55' W 005°20'0 0.0
2017-Oct-31 08:28N 35°55' W 005°20'0 0.0
2017-Oct-31 07:58N 35°55' W 005°20'0 0.0
2017-Oct-31 07:28N 35°55' W 005°20'0 0.0
2017-Oct-31 06:58N 35°55' W 005°20'0 0.0
2017-Oct-31 06:28N 35°55' W 005°20'0 0.1
2017-Oct-31 05:58N 35°55' W 005°20'0 0.0
2017-Oct-31 05:28N 35°55' W 005°20'0 0.1
2017-Oct-31 04:58N 35°55' W 005°20'0 0.1
2017-Oct-31 04:28N 35°55' W 005°20'0 0.1
2017-Oct-31 03:58N 35°55' W 005°20'0 0.0
2017-Oct-31 03:28N 35°55' W 005°20'0 0.0
2017-Oct-31 02:58N 35°55' W 005°20'0 0.1
2017-Oct-31 02:28N 35°55' W 005°20'0 0.1
2017-Oct-31 01:58N 35°55' W 005°20'0 0.0
2017-Oct-31 01:25N 35°55' W 005°20'0 0.0
2017-Oct-31 00:58N 35°55' W 005°20'0 0.0
2017-Oct-31 00:28N 35°55' W 005°20'0 0.0
2017-Oct-30 23:58N 35°55' W 005°20'0 0.1
2017-Oct-30 23:28N 35°55' W 005°20'0 0.1
2017-Oct-30 22:58N 35°55' W 005°20'0 0.1
2017-Oct-30 22:28N 35°55' W 005°20'0 0.0
2017-Oct-30 21:58N 35°55' W 005°20'0 0.0
2017-Oct-30 21:28N 35°55' W 005°20'0 0.0
2017-Oct-30 20:58N 35°55' W 005°20'0 0.0
2017-Oct-30 20:25N 35°55' W 005°20'0 0.0
2017-Oct-30 19:58N 35°55' W 005°20'0 0.0
2017-Oct-30 19:25N 35°55' W 005°20'0 0.0
2017-Oct-30 18:58N 35°55' W 005°20'0 0.0
2017-Oct-30 18:28N 35°55' W 005°20'0 0.0
2017-Oct-30 17:58N 35°55' W 005°20'0 0.0
2017-Oct-30 17:28N 35°55' W 005°20'0 0.0
2017-Oct-30 16:58N 35°55' W 005°20'0 0.0
2017-Oct-30 16:28N 35°55' W 005°20'0 0.0
2017-Oct-30 15:58N 35°55' W 005°20'0 0.0
2017-Oct-30 15:28N 35°55' W 005°20'0 0.0
2017-Oct-30 14:58N 35°55' W 005°20'0 0.0
2017-Oct-30 14:01N 35°55' W 005°20'1 2.8
2017-Oct-30 13:30N 35°56' W 005°21'4 8.3
2017-Oct-30 13:00N 35°57' W 005°26'173 9.9
2017-Oct-29 19:27N 33°41' W 007°38'0 0.0
2017-Oct-29 12:45N 33°41' W 007°37'0 0.0
2017-Oct-29 05:42N 33°41' W 007°37'0 0.1
2017-Oct-29 05:30N 33°41' W 007°37'0 0.1
2017-Oct-29 05:00N 33°41' W 007°37'0 0.0
2017-Oct-29 04:30N 33°41' W 007°37'0 0.1
2017-Oct-29 04:00N 33°41' W 007°37'0 0.0
2017-Oct-28 18:21N 33°41' W 007°38'0 0.1
2017-Oct-28 18:00N 33°41' W 007°38'0 0.0
2017-Oct-28 17:30N 33°41' W 007°38'0 0.0
2017-Oct-28 16:24N 33°41' W 007°38'0 0.1
2017-Oct-28 16:00N 33°41' W 007°38'0 0.0
2017-Oct-28 15:30N 33°41' W 007°38'0 0.0
2017-Oct-28 14:18N 33°41' W 007°38'  
Track history (hours):
 
Tides and Currents Weather Stations Pressure Air Temp Water Temp Dewpoint Dewpoint Depression Visibility Wind Speed Wind Dir Waves Ship Positions

Mother M

Last reported at 2017-Nov-04 21:02 UTC. Time now 2017-Nov-24 02:09 UTC.
Position N 27°38' W 015°14'.
Warning: this ship's position is 19 days out of date.

Length 180 m; draft 8.2 m.

Type: Cargo ship. MMSI: 538004721.

Date/timePositionNaut miles runAvg speedWind from/ knotsBaromVisibWave heightAir tempDewpointWater temp
2017-Nov-04 21:02N 27°38' W 015°14'013.9
2017-Nov-04 21:00N 27°38' W 015°13'713.9
2017-Nov-04 20:30N 27°44' W 015°10'713.6
2017-Nov-04 20:00N 27°51' W 015°08'713.6
2017-Nov-04 19:30N 27°57' W 015°05'713.7
2017-Nov-04 19:00N 28°03' W 015°02'713.6
2017-Nov-04 18:30N 28°10' W 014°60'713.5
2017-Nov-04 18:00N 28°16' W 014°57'713.5
2017-Nov-04 17:30N 28°22' W 014°54'713.6
2017-Nov-04 17:00N 28°28' W 014°49'  
2017-Oct-31 12:07N 35°59' W 005°20'110.0
2017-Oct-31 11:58N 35°57' W 005°19'3 5.1
2017-Oct-31 11:28N 35°55' W 005°20'0 0.1
2017-Oct-31 10:58N 35°55' W 005°20'0 0.0
2017-Oct-31 10:28N 35°55' W 005°20'0 0.1
2017-Oct-31 09:55N 35°55' W 005°20'0 0.1
2017-Oct-31 09:22N 35°55' W 005°20'0 0.0
2017-Oct-31 08:58N 35°55' W 005°20'0 0.0
2017-Oct-31 08:28N 35°55' W 005°20'0 0.0
2017-Oct-31 07:58N 35°55' W 005°20'0 0.0
2017-Oct-31 07:28N 35°55' W 005°20'0 0.0
2017-Oct-31 06:58N 35°55' W 005°20'0 0.0
2017-Oct-31 06:28N 35°55' W 005°20'0 0.1
2017-Oct-31 05:58N 35°55' W 005°20'0 0.0
2017-Oct-31 05:28N 35°55' W 005°20'0 0.1
2017-Oct-31 04:58N 35°55' W 005°20'0 0.1
2017-Oct-31 04:28N 35°55' W 005°20'0 0.1
2017-Oct-31 03:58N 35°55' W 005°20'0 0.0
2017-Oct-31 03:28N 35°55' W 005°20'0 0.0
2017-Oct-31 02:58N 35°55' W 005°20'0 0.1
2017-Oct-31 02:28N 35°55' W 005°20'0 0.1
2017-Oct-31 01:58N 35°55' W 005°20'0 0.0
2017-Oct-31 01:25N 35°55' W 005°20'0 0.0
2017-Oct-31 00:58N 35°55' W 005°20'0 0.0
2017-Oct-31 00:28N 35°55' W 005°20'0 0.0
2017-Oct-30 23:58N 35°55' W 005°20'0 0.1
2017-Oct-30 23:28N 35°55' W 005°20'0 0.1
2017-Oct-30 22:58N 35°55' W 005°20'0 0.1
2017-Oct-30 22:28N 35°55' W 005°20'0 0.0
2017-Oct-30 21:58N 35°55' W 005°20'0 0.0
2017-Oct-30 21:28N 35°55' W 005°20'0 0.0
2017-Oct-30 20:58N 35°55' W 005°20'0 0.0
2017-Oct-30 20:25N 35°55' W 005°20'0 0.0
2017-Oct-30 19:58N 35°55' W 005°20'0 0.0
2017-Oct-30 19:25N 35°55' W 005°20'0 0.0
2017-Oct-30 18:58N 35°55' W 005°20'0 0.0
2017-Oct-30 18:28N 35°55' W 005°20'0 0.0
2017-Oct-30 17:58N 35°55' W 005°20'0 0.0
2017-Oct-30 17:28N 35°55' W 005°20'0 0.0
2017-Oct-30 16:58N 35°55' W 005°20'0 0.0
2017-Oct-30 16:28N 35°55' W 005°20'0 0.0
2017-Oct-30 15:58N 35°55' W 005°20'0 0.0
2017-Oct-30 15:28N 35°55' W 005°20'0 0.0
2017-Oct-30 14:58N 35°55' W 005°20'0 0.0
2017-Oct-30 14:01N 35°55' W 005°20'1 2.8
2017-Oct-30 13:30N 35°56' W 005°21'4 8.3
2017-Oct-30 13:00N 35°57' W 005°26'173 9.9
2017-Oct-29 19:27N 33°41' W 007°38'0 0.0
2017-Oct-29 12:45N 33°41' W 007°37'0 0.0
2017-Oct-29 05:42N 33°41' W 007°37'0 0.1
2017-Oct-29 05:30N 33°41' W 007°37'0 0.1
2017-Oct-29 05:00N 33°41' W 007°37'0 0.0
2017-Oct-29 04:30N 33°41' W 007°37'0 0.1
2017-Oct-29 04:00N 33°41' W 007°37'0 0.0
2017-Oct-28 18:21N 33°41' W 007°38'0 0.1
2017-Oct-28 18:00N 33°41' W 007°38'0 0.0
2017-Oct-28 17:30N 33°41' W 007°38'0 0.0
2017-Oct-28 16:24N 33°41' W 007°38'0 0.1
2017-Oct-28 16:00N 33°41' W 007°38'0 0.0
2017-Oct-28 15:30N 33°41' W 007°38'0 0.0
2017-Oct-28 14:18N 33°41' W 007°38'  

Dump ship's entire track history